Time;durP1;ratioP1;P1;durP2;ratioP2;P2;SDS_P1;SDS_P2;PMS_P1;PMS_P2;Temp;Humidity;BMP_temperature;BMP_pressure;BME280_temperature;BME280_humidity;BME280_pressure;Samples;Min_cycle;Max_cycle;Signal;HPM_P1;HPM_P2
2021/01/06 00:01:22;;;;;;;15.20;9.70;;;4.00;99.90;;;;;;5017454;28;20836;-89
2021/01/06 00:03:50;;;;;;;14.83;10.60;;;3.90;99.90;;;;;;5013846;28;20530;-90
2021/01/06 00:06:18;;;;;;;13.60;10.00;;;3.90;99.90;;;;;;5013973;28;20539;-89
2021/01/06 00:08:45;;;;;;;14.30;10.00;;;3.90;99.90;;;;;;5009704;28;20868;-89
2021/01/06 00:11:17;;;;;;;11.93;9.00;;;3.90;99.90;;;;;;5014568;28;20826;-90
2021/01/06 00:13:43;;;;;;;12.67;8.47;;;3.90;99.90;;;;;;5014757;28;20438;-89
2021/01/06 00:16:10;;;;;;;15.33;11.00;;;4.00;99.90;;;;;;5016607;28;21046;-89
2021/01/06 00:18:36;;;;;;;14.23;9.90;;;3.90;99.90;;;;;;5013846;28;20462;-90
2021/01/06 00:21:03;;;;;;;12.00;8.87;;;3.90;99.90;;;;;;5014420;28;20542;-90
2021/01/06 00:23:30;;;;;;;16.77;10.30;;;4.00;99.90;;;;;;5012502;28;20460;-90
2021/01/06 00:25:56;;;;;;;11.80;8.60;;;4.00;99.90;;;;;;5011368;28;20595;-90
2021/01/06 00:28:24;;;;;;;13.20;9.40;;;4.00;99.90;;;;;;5023188;28;20553;-89
2021/01/06 00:30:52;;;;;;;13.33;9.30;;;4.00;99.90;;;;;;5018161;28;20425;-90
2021/01/06 00:33:21;;;;;;;14.33;9.63;;;4.00;99.90;;;;;;5016906;28;20548;-90
2021/01/06 00:35:52;;;;;;;14.10;8.53;;;4.00;99.90;;;;;;5016466;28;20558;-91
2021/01/06 00:38:19;;;;;;;12.77;9.43;;;4.00;99.90;;;;;;5001112;28;20449;-90
2021/01/06 00:40:48;;;;;;;11.87;9.10;;;4.00;99.90;;;;;;5017150;28;20869;-90
2021/01/06 00:43:17;;;;;;;12.13;9.30;;;4.10;99.90;;;;;;5016269;28;20551;-90
2021/01/06 00:45:44;;;;;;;12.10;9.00;;;4.10;99.90;;;;;;5016702;28;20536;-90
2021/01/06 00:48:12;;;;;;;12.27;9.33;;;4.00;99.90;;;;;;5015888;28;20547;-90
2021/01/06 00:50:40;;;;;;;14.67;8.40;;;4.00;99.90;;;;;;5016505;28;20486;-90
2021/01/06 00:53:09;;;;;;;13.17;9.60;;;4.00;99.90;;;;;;5016269;28;20527;-91
2021/01/06 00:55:36;;;;;;;13.40;9.40;;;4.10;99.90;;;;;;5016302;28;20549;-90
2021/01/06 00:58:03;;;;;;;12.10;8.33;;;4.00;99.90;;;;;;5015600;28;20563;-90
2021/01/06 01:00:31;;;;;;;14.30;10.50;;;4.00;99.90;;;;;;5015896;28;20484;-90
2021/01/06 01:02:58;;;;;;;12.40;10.00;;;4.00;99.90;;;;;;5002618;28;20455;-90
2021/01/06 01:05:28;;;;;;;14.00;10.37;;;4.00;99.90;;;;;;5012784;28;20494;-90
2021/01/06 01:07:55;;;;;;;14.03;10.47;;;3.90;99.90;;;;;;5010910;28;20539;-90
2021/01/06 01:10:24;;;;;;;13.10;9.47;;;4.00;99.90;;;;;;5016640;28;20530;-88
2021/01/06 01:12:51;;;;;;;11.73;9.27;;;3.90;99.90;;;;;;5016627;28;20511;-90
2021/01/06 01:15:19;;;;;;;17.47;10.27;;;4.00;99.90;;;;;;5016290;28;20491;-90
2021/01/06 01:17:46;;;;;;;12.80;9.10;;;4.00;99.90;;;;;;5015951;28;20501;-90
2021/01/06 01:20:15;;;;;;;10.60;8.00;;;4.00;99.90;;;;;;5015661;28;20491;-89
2021/01/06 01:22:43;;;;;;;10.37;8.17;;;4.00;99.90;;;;;;5014433;28;20533;-90
2021/01/06 01:25:11;;;;;;;12.03;8.50;;;4.00;99.90;;;;;;5015414;28;20458;-90
2021/01/06 01:27:37;;;;;;;11.30;7.83;;;4.10;99.90;;;;;;5016144;28;21000;-90
2021/01/06 01:30:06;;;;;;;13.20;9.10;;;4.10;99.90;;;;;;5015772;28;20555;-90
2021/01/06 01:32:33;;;;;;;10.93;8.10;;;4.10;99.90;;;;;;5015688;28;20542;-90
2021/01/06 01:34:59;;;;;;;14.53;9.13;;;4.00;99.90;;;;;;5015844;28;20537;-90
2021/01/06 01:37:54;;;;;;;11.70;8.00;;;4.10;99.90;;;;;;5016038;28;20522;-90
2021/01/06 01:40:23;;;;;;;11.93;8.60;;;4.10;99.90;;;;;;5011254;28;20470;-89
2021/01/06 01:42:54;;;;;;;10.87;8.07;;;4.10;99.90;;;;;;5015804;28;20492;-90
2021/01/06 01:45:25;;;;;;;12.93;8.80;;;4.10;99.90;;;;;;5015033;28;20444;-90
2021/01/06 01:47:57;;;;;;;10.33;8.17;;;4.10;99.90;;;;;;5015359;28;20463;-92
2021/01/06 01:50:25;;;;;;;9.80;6.60;;;4.10;99.90;;;;;;5015861;28;20536;-91
2021/01/06 01:52:58;;;;;;;8.50;6.37;;;4.10;99.90;;;;;;5015178;28;20985;-92
2021/01/06 01:55:26;;;;;;;8.47;6.40;;;4.20;99.90;;;;;;5016269;28;20505;-90
2021/01/06 01:57:57;;;;;;;10.27;7.87;;;4.20;99.90;;;;;;5008263;28;20492;-90
2021/01/06 02:00:25;;;;;;;9.63;7.37;;;4.20;99.90;;;;;;4998959;28;20483;-91
2021/01/06 02:03:03;;;;;;;11.00;7.17;;;4.20;99.90;;;;;;4999379;28;20466;-93
2021/01/06 02:05:34;;;;;;;17.33;8.30;;;4.20;99.90;;;;;;5017042;28;20454;-90
2021/01/06 02:08:12;;;;;;;9.07;7.10;;;4.30;99.90;;;;;;5016235;28;20460;-90
2021/01/06 02:10:45;;;;;;;8.83;6.07;;;4.20;99.90;;;;;;5019879;28;20690;-90
2021/01/06 02:13:17;;;;;;;10.37;7.20;;;4.20;99.90;;;;;;5017794;28;20519;-89
2021/01/06 02:15:47;;;;;;;7.03;5.93;;;4.20;99.90;;;;;;5014964;28;20586;-90
2021/01/06 02:18:15;;;;;;;9.00;7.33;;;4.20;99.90;;;;;;5013996;28;20591;-90
2021/01/06 02:20:41;;;;;;;10.37;7.27;;;4.20;99.90;;;;;;5015275;28;20602;-90
2021/01/06 02:23:09;;;;;;;9.00;7.30;;;4.20;99.90;;;;;;5015033;28;20480;-90
2021/01/06 02:25:39;;;;;;;8.60;6.60;;;4.10;99.90;;;;;;5014985;28;20552;-90
2021/01/06 02:28:06;;;;;;;9.83;7.50;;;4.20;99.90;;;;;;5014883;28;20529;-89
2021/01/06 02:30:33;;;;;;;9.47;6.47;;;4.20;99.90;;;;;;5015370;28;20499;-90
2021/01/06 02:33:00;;;;;;;8.30;6.43;;;4.20;99.90;;;;;;5015045;28;20455;-90
2021/01/06 02:35:26;;;;;;;12.27;7.33;;;4.20;99.90;;;;;;5015167;28;20527;-90
2021/01/06 02:37:53;;;;;;;11.70;7.90;;;4.20;99.90;;;;;;5015065;28;20484;-92
2021/01/06 02:40:25;;;;;;;10.50;7.00;;;4.20;99.90;;;;;;5015134;28;20448;-90
2021/01/06 02:42:54;;;;;;;12.20;7.70;;;4.20;99.90;;;;;;5015309;28;20475;-90
2021/01/06 02:45:21;;;;;;;9.90;7.00;;;4.10;99.90;;;;;;5014893;28;20583;-90
2021/01/06 02:47:49;;;;;;;11.30;8.07;;;4.10;99.90;;;;;;5014957;28;20539;-90
2021/01/06 02:50:20;;;;;;;10.07;6.77;;;4.10;99.90;;;;;;5014211;28;21058;-89
2021/01/06 02:52:50;;;;;;;8.10;6.73;;;4.20;99.90;;;;;;5015726;28;20496;-90
2021/01/06 02:55:17;;;;;;;10.50;7.83;;;4.20;99.90;;;;;;5015106;28;20578;-90
2021/01/06 02:57:46;;;;;;;9.37;7.37;;;4.10;99.90;;;;;;5015151;28;20562;-90
2021/01/06 03:00:15;;;;;;;9.00;7.33;;;4.10;99.90;;;;;;5014412;28;20542;-89
2021/01/06 03:02:43;;;;;;;13.40;8.87;;;4.00;99.90;;;;;;5014893;28;20527;-90
2021/01/06 03:05:18;;;;;;;12.37;6.90;;;4.00;99.90;;;;;;5014620;28;20547;-90
2021/01/06 03:07:44;;;;;;;8.93;7.53;;;4.00;99.90;;;;;;5019123;28;20514;-90
2021/01/06 03:10:15;;;;;;;10.07;7.50;;;4.10;99.90;;;;;;5035588;28;20442;-92
2021/01/06 03:12:42;;;;;;;10.43;7.40;;;4.10;99.90;;;;;;5028169;28;20464;-89
2021/01/06 03:15:10;;;;;;;10.63;8.07;;;4.10;99.90;;;;;;5036861;28;20455;-89
2021/01/06 03:17:37;;;;;;;14.83;8.30;;;4.10;99.90;;;;;;5027970;28;20490;-90
2021/01/06 03:20:08;;;;;;;10.87;7.63;;;4.00;99.90;;;;;;5018790;28;20512;-90
2021/01/06 03:22:36;;;;;;;11.33;8.00;;;4.00;99.90;;;;;;5017481;28;20547;-90
2021/01/06 03:25:06;;;;;;;9.60;7.33;;;3.90;99.90;;;;;;5016311;28;20761;-90
2021/01/06 03:27:34;;;;;;;10.53;7.90;;;3.90;99.90;;;;;;5017346;28;20597;-90
2021/01/06 03:30:01;;;;;;;10.37;7.03;;;4.00;99.90;;;;;;5015057;28;20843;-90
2021/01/06 03:32:33;;;;;;;10.23;7.00;;;3.90;99.90;;;;;;4996834;28;20544;-90
2021/01/06 03:35:09;;;;;;;8.90;6.87;;;4.00;99.90;;;;;;4997318;28;20479;-90
2021/01/06 03:37:42;;;;;;;12.70;8.07;;;3.90;99.90;;;;;;4998119;28;20563;-90
2021/01/06 03:40:15;;;;;;;9.00;7.20;;;3.90;99.90;;;;;;4998222;28;20479;-90
2021/01/06 03:42:43;;;;;;;11.67;7.60;;;3.90;99.90;;;;;;5015410;28;20559;-89
2021/01/06 03:45:14;;;;;;;11.33;7.03;;;3.90;99.90;;;;;;5020888;28;20848;-89
2021/01/06 03:47:45;;;;;;;10.73;7.23;;;3.90;99.90;;;;;;5025451;28;20445;-90
2021/01/06 03:50:21;;;;;;;10.67;7.13;;;3.90;99.90;;;;;;5027115;28;20458;-89
2021/01/06 03:53:00;;;;;;;11.20;7.77;;;3.90;99.90;;;;;;5025502;28;20417;-90
2021/01/06 03:55:40;;;;;;;11.30;7.83;;;3.90;99.90;;;;;;5023390;28;20525;-89
2021/01/06 03:58:15;;;;;;;8.33;6.67;;;3.90;99.90;;;;;;5024171;28;21126;-90
2021/01/06 04:00:47;;;;;;;8.83;6.47;;;3.80;99.90;;;;;;5026246;28;20443;-89
2021/01/06 04:03:30;;;;;;;10.40;6.97;;;3.80;99.90;;;;;;5029376;28;20455;-88
2021/01/06 04:05:58;;;;;;;10.10;7.03;;;3.70;99.90;;;;;;5029468;28;20466;-91
2021/01/06 04:08:40;;;;;;;10.20;6.83;;;3.70;99.90;;;;;;5032967;28;20477;-88
2021/01/06 04:11:08;;;;;;;9.90;7.30;;;3.70;99.90;;;;;;5035779;28;20475;-88
2021/01/06 04:13:35;;;;;;;10.77;7.90;;;3.70;99.90;;;;;;5025819;28;20451;-90
2021/01/06 04:16:01;;;;;;;14.40;8.20;;;3.70;99.90;;;;;;5018101;28;20776;-90
2021/01/06 04:18:28;;;;;;;10.80;7.77;;;3.70;99.90;;;;;;5016989;28;20574;-90
2021/01/06 04:20:55;;;;;;;11.33;8.87;;;3.70;99.90;;;;;;5017828;28;20555;-89
2021/01/06 04:23:21;;;;;;;17.00;8.93;;;3.70;99.90;;;;;;5018228;28;20535;-90
2021/01/06 04:25:50;;;;;;;16.17;10.90;;;3.70;99.90;;;;;;5018006;28;20838;-89
2021/01/06 04:28:18;;;;;;;16.83;10.60;;;3.80;99.90;;;;;;5017443;28;20469;-89
2021/01/06 04:30:47;;;;;;;17.63;11.73;;;3.80;99.90;;;;;;5017410;28;20539;-89
2021/01/06 04:33:17;;;;;;;16.93;11.50;;;3.80;99.90;;;;;;5008948;28;20545;-89
2021/01/06 04:35:45;;;;;;;18.23;12.70;;;3.70;99.90;;;;;;5010420;28;20498;-89
2021/01/06 04:38:16;;;;;;;16.63;12.50;;;3.70;99.90;;;;;;5017002;28;20566;-89
2021/01/06 04:40:45;;;;;;;19.13;13.60;;;3.70;99.90;;;;;;5017512;28;20946;-89
2021/01/06 04:43:18;;;;;;;16.10;11.30;;;3.70;99.90;;;;;;5016856;28;20596;-89
2021/01/06 04:45:55;;;;;;;19.33;13.53;;;3.70;99.90;;;;;;5017045;28;20538;-89
2021/01/06 04:48:45;;;;;;;15.90;11.53;;;3.80;99.90;;;;;;5017068;28;20550;-89
2021/01/06 04:51:32;;;;;;;13.90;11.70;;;3.80;99.90;;;;;;5016965;28;20488;-90
2021/01/06 04:54:16;;;;;;;22.60;12.60;;;3.70;99.90;;;;;;5017051;28;20808;-93
2021/01/06 04:56:55;;;;;;;19.13;12.67;;;3.60;99.90;;;;;;5017563;28;20554;-89
2021/01/06 04:59:51;;;;;;;21.70;13.13;;;3.70;99.90;;;;;;5018171;28;20439;-89
2021/01/06 05:02:49;;;;;;;14.90;12.23;;;3.60;99.90;;;;;;5017084;28;20454;-89
2021/01/06 05:05:38;;;;;;;20.67;13.70;;;3.60;99.90;;;;;;5016406;28;20488;-90
2021/01/06 05:08:17;;;;;;;17.10;12.33;;;3.60;99.90;;;;;;4996849;28;20506;-89
2021/01/06 05:10:49;;;;;;;18.30;13.13;;;3.60;99.90;;;;;;4996917;28;20574;-89
2021/01/06 05:13:23;;;;;;;17.70;11.20;;;3.60;99.90;;;;;;4996411;28;20536;-89
2021/01/06 05:15:55;;;;;;;16.70;12.00;;;3.50;99.90;;;;;;4996420;28;20569;-90
2021/01/06 05:18:21;;;;;;;18.27;12.27;;;3.60;99.90;;;;;;5011483;28;20588;-89
2021/01/06 05:20:48;;;;;;;14.03;11.03;;;3.60;99.90;;;;;;5015957;28;20927;-88
2021/01/06 05:23:19;;;;;;;13.53;11.13;;;3.60;99.90;;;;;;5016405;28;20549;-88
2021/01/06 05:25:46;;;;;;;18.67;12.70;;;3.60;99.90;;;;;;5015862;28;20475;-88
2021/01/06 05:28:15;;;;;;;19.67;13.60;;;3.50;99.90;;;;;;5015580;28;20541;-89
2021/01/06 05:30:43;;;;;;;15.10;12.10;;;3.50;99.90;;;;;;5015826;28;20494;-89
2021/01/06 05:33:12;;;;;;;17.73;11.50;;;3.60;99.90;;;;;;5008869;28;20458;-89
2021/01/06 05:35:42;;;;;;;14.87;11.13;;;3.60;99.90;;;;;;4996423;28;20486;-90
2021/01/06 05:38:09;;;;;;;18.03;12.80;;;3.60;99.90;;;;;;5012315;28;20576;-89
2021/01/06 05:40:39;;;;;;;15.93;11.07;;;3.60;99.90;;;;;;5015859;28;20553;-89
2021/01/06 05:43:07;;;;;;;14.53;11.70;;;3.60;99.90;;;;;;5015997;28;20489;-88
2021/01/06 05:45:47;;;;;;;18.30;12.37;;;3.60;99.90;;;;;;5015882;28;20533;-89
2021/01/06 05:48:18;;;;;;;16.67;12.70;;;3.60;99.90;;;;;;5015408;28;20968;-89
2021/01/06 05:50:53;;;;;;;17.63;12.90;;;3.50;99.90;;;;;;5015925;28;20518;-89
2021/01/06 05:53:28;;;;;;;18.13;13.17;;;3.60;99.90;;;;;;5015877;28;20558;-89
2021/01/06 05:55:55;;;;;;;17.70;12.30;;;3.60;99.90;;;;;;5019010;28;20831;-89
2021/01/06 05:58:26;;;;;;;20.60;13.63;;;3.60;99.90;;;;;;5008650;28;20555;-89
2021/01/06 06:01:04;;;;;;;16.47;12.83;;;3.60;99.90;;;;;;5010597;28;20447;-89
2021/01/06 06:03:58;;;;;;;16.47;13.27;;;3.50;99.90;;;;;;5013756;28;20462;-89
2021/01/06 06:06:54;;;;;;;15.90;11.60;;;3.50;99.90;;;;;;5021463;28;20486;-89
2021/01/06 06:09:44;;;;;;;17.00;11.90;;;3.50;99.90;;;;;;4995614;28;20498;-89
2021/01/06 06:12:42;;;;;;;18.20;13.40;;;3.50;99.90;;;;;;4996219;28;20475;-90
2021/01/06 06:15:20;;;;;;;17.00;12.40;;;3.50;99.90;;;;;;4995636;28;20467;-90
2021/01/06 06:18:27;;;;;;;18.50;12.30;;;3.50;99.90;;;;;;5000633;28;20968;-89
2021/01/06 06:20:58;;;;;;;12.77;10.13;;;3.60;99.90;;;;;;5015479;28;20442;-90
2021/01/06 06:23:49;;;;;;;17.30;12.07;;;3.70;99.90;;;;;;5014701;28;20538;-89
2021/01/06 06:26:24;;;;;;;17.43;11.80;;;3.80;99.90;;;;;;5015151;28;20437;-90
2021/01/06 06:28:58;;;;;;;15.80;11.53;;;3.70;99.90;;;;;;5016243;28;20508;-89
2021/01/06 06:31:30;;;;;;;16.07;12.37;;;3.70;99.90;;;;;;5015001;28;20517;-90
2021/01/06 06:33:59;;;;;;;18.87;13.47;;;3.60;99.90;;;;;;5004527;28;20469;-89
2021/01/06 06:36:29;;;;;;;16.23;11.60;;;3.60;99.90;;;;;;4995682;28;20617;-91
2021/01/06 06:39:01;;;;;;;18.47;13.57;;;3.70;99.90;;;;;;5003795;28;20938;-89
2021/01/06 06:41:31;;;;;;;19.20;14.17;;;3.70;99.90;;;;;;5015115;28;20485;-89
2021/01/06 06:44:29;;;;;;;16.63;12.50;;;3.80;99.90;;;;;;5015146;28;20450;-89
2021/01/06 06:47:08;;;;;;;16.77;12.10;;;3.70;99.90;;;;;;5015383;28;20451;-89
2021/01/06 06:49:46;;;;;;;19.20;12.17;;;3.70;99.90;;;;;;5017517;28;20463;-87
2021/01/06 06:52:19;;;;;;;19.07;12.90;;;3.70;99.90;;;;;;5014243;28;20484;-88
2021/01/06 06:54:57;;;;;;;19.83;12.97;;;3.60;99.90;;;;;;5014411;28;20433;-88
2021/01/06 06:57:28;;;;;;;19.50;14.37;;;3.70;99.90;;;;;;5013746;28;20630;-87
2021/01/06 07:00:09;;;;;;;18.17;13.70;;;3.70;99.90;;;;;;5014799;28;20443;-87
2021/01/06 07:02:43;;;;;;;19.93;14.10;;;3.70;99.90;;;;;;5014316;28;20470;-84
2021/01/06 07:05:27;;;;;;;15.83;12.17;;;3.80;99.90;;;;;;5013922;28;20847;-84
2021/01/06 07:07:57;;;;;;;16.53;12.30;;;3.70;99.90;;;;;;5013917;28;20905;-85
2021/01/06 07:10:25;;;;;;;18.23;12.97;;;3.60;99.90;;;;;;5012624;28;20463;-84
2021/01/06 07:12:55;;;;;;;16.40;12.70;;;3.60;99.90;;;;;;4997220;28;20458;-84
2021/01/06 07:15:31;;;;;;;17.70;13.57;;;3.60;99.90;;;;;;5007105;28;20533;-83
2021/01/06 07:17:58;;;;;;;15.03;11.90;;;3.60;99.90;;;;;;5006696;28;20489;-84
2021/01/06 07:20:38;;;;;;;14.93;11.50;;;3.60;99.90;;;;;;5012660;28;20469;-89
2021/01/06 07:23:12;;;;;;;14.87;11.20;;;3.70;99.90;;;;;;5020267;28;20879;-88
2021/01/06 07:25:42;;;;;;;18.10;12.40;;;3.60;99.90;;;;;;5011437;28;20537;-88
2021/01/06 07:28:14;;;;;;;18.67;12.57;;;3.70;99.90;;;;;;5018797;28;20505;-91
2021/01/06 07:30:45;;;;;;;17.23;12.13;;;3.70;99.90;;;;;;5019449;28;20469;-88
2021/01/06 07:33:23;;;;;;;17.70;12.30;;;3.70;99.90;;;;;;5016072;28;20455;-89
2021/01/06 07:35:50;;;;;;;14.47;11.57;;;3.70;99.90;;;;;;5008484;28;20453;-88
2021/01/06 07:38:19;;;;;;;14.53;11.13;;;3.60;99.90;;;;;;5009055;28;20567;-88
2021/01/06 07:40:47;;;;;;;14.30;10.70;;;3.60;99.90;;;;;;5012846;28;20480;-87
2021/01/06 07:43:19;;;;;;;17.20;12.77;;;3.70;99.90;;;;;;5016461;28;20835;-87
2021/01/06 07:46:04;;;;;;;15.70;12.60;;;3.60;99.90;;;;;;5015992;28;20455;-87
2021/01/06 07:48:41;;;;;;;16.57;12.27;;;3.60;99.90;;;;;;5017846;28;20532;-86
2021/01/06 07:51:22;;;;;;;14.70;11.70;;;3.60;99.90;;;;;;5019776;28;20441;-88
2021/01/06 07:53:54;;;;;;;13.10;10.80;;;3.60;99.90;;;;;;5014403;28;20525;-88
2021/01/06 07:56:26;;;;;;;16.43;13.70;;;3.60;99.90;;;;;;5015667;28;20453;-87
2021/01/06 07:58:56;;;;;;;18.10;12.17;;;3.60;99.90;;;;;;5011930;28;20539;-87
2021/01/06 08:01:34;;;;;;;14.53;12.03;;;3.70;99.90;;;;;;5011278;28;20448;-87
2021/01/06 08:04:09;;;;;;;14.60;11.57;;;3.70;99.90;;;;;;5014864;28;20516;-87
2021/01/06 08:06:47;;;;;;;17.60;12.80;;;3.70;99.90;;;;;;5018176;28;20568;-86
2021/01/06 08:09:27;;;;;;;15.33;12.57;;;3.70;99.90;;;;;;5020244;28;20524;-88
2021/01/06 08:11:54;;;;;;;13.33;10.13;;;3.60;99.90;;;;;;5018201;28;21064;-87
2021/01/06 08:14:25;;;;;;;19.80;11.73;;;3.60;99.90;;;;;;5015767;28;20544;-87
2021/01/06 08:16:57;;;;;;;18.40;12.27;;;3.60;99.90;;;;;;5017938;28;20502;-88
2021/01/06 08:19:27;;;;;;;16.73;11.97;;;3.60;99.90;;;;;;5020328;28;20446;-87
2021/01/06 08:22:02;;;;;;;15.17;11.23;;;3.60;99.90;;;;;;5015782;28;20545;-88
2021/01/06 08:24:33;;;;;;;15.67;11.57;;;3.60;99.90;;;;;;5016426;28;20817;-87
2021/01/06 08:27:02;;;;;;;15.13;11.60;;;3.60;99.90;;;;;;5016771;28;20518;-87
2021/01/06 08:29:31;;;;;;;16.60;10.47;;;3.70;99.90;;;;;;5016947;28;20521;-87
2021/01/06 08:32:02;;;;;;;17.30;11.93;;;3.80;99.90;;;;;;5016373;28;20504;-89
2021/01/06 08:34:31;;;;;;;15.10;11.23;;;3.90;99.90;;;;;;5013987;28;20746;-87
2021/01/06 08:37:05;;;;;;;14.60;10.80;;;4.10;99.90;;;;;;5003062;28;20487;-88
2021/01/06 08:39:35;;;;;;;15.13;11.23;;;4.00;99.90;;;;;;5015013;28;20965;-89
2021/01/06 08:42:12;;;;;;;18.00;11.20;;;4.00;99.90;;;;;;5016932;28;20867;-86
2021/01/06 08:44:42;;;;;;;15.97;12.03;;;3.90;99.90;;;;;;5014703;28;20533;-88
2021/01/06 08:47:12;;;;;;;16.67;10.50;;;3.90;99.90;;;;;;5016793;28;20829;-87
2021/01/06 08:49:42;;;;;;;15.63;11.93;;;4.10;99.90;;;;;;5016388;28;20906;-89
2021/01/06 08:52:23;;;;;;;16.20;12.20;;;3.90;99.90;;;;;;5021969;28;20446;-87
2021/01/06 08:55:02;;;;;;;14.10;11.37;;;3.90;99.90;;;;;;5016203;28;20530;-87
2021/01/06 08:57:32;;;;;;;15.83;11.30;;;3.80;99.90;;;;;;5011589;28;20518;-88
2021/01/06 09:00:13;;;;;;;18.30;12.63;;;3.90;99.90;;;;;;5013884;28;20469;-87
2021/01/06 09:02:47;;;;;;;15.30;11.83;;;3.80;99.90;;;;;;5013835;28;20479;-88
2021/01/06 09:05:45;;;;;;;15.30;11.57;;;3.90;99.90;;;;;;5014137;28;20466;-88
2021/01/06 09:08:13;;;;;;;15.70;10.93;;;3.90;99.90;;;;;;5012592;28;20904;-88
2021/01/06 09:10:45;;;;;;;17.07;13.10;;;3.90;99.90;;;;;;5023750;28;20840;-88
2021/01/06 09:13:15;;;;;;;16.80;11.97;;;3.90;99.90;;;;;;5030661;28;20436;-87
2021/01/06 09:15:48;;;;;;;13.73;11.03;;;3.90;99.90;;;;;;5028705;28;20476;-88
2021/01/06 09:18:21;;;;;;;19.00;13.80;;;3.90;99.90;;;;;;5021572;28;20486;-88
2021/01/06 09:21:10;;;;;;;15.53;11.80;;;3.90;99.90;;;;;;5022698;28;20457;-87
2021/01/06 09:23:37;;;;;;;16.73;12.30;;;4.00;99.90;;;;;;5017085;28;20507;-87
2021/01/06 09:26:04;;;;;;;18.60;14.33;;;3.90;99.90;;;;;;5026516;28;20548;-86
2021/01/06 09:28:37;;;;;;;18.00;12.73;;;3.80;99.90;;;;;;5015830;28;20554;-87
2021/01/06 09:31:05;;;;;;;17.20;12.73;;;3.90;99.90;;;;;;5016530;28;20465;-87
2021/01/06 09:33:34;;;;;;;16.80;10.83;;;3.90;99.90;;;;;;5015038;28;20543;-87
2021/01/06 09:36:02;;;;;;;17.00;11.87;;;4.00;99.90;;;;;;5016004;28;20546;-87
2021/01/06 09:38:34;;;;;;;20.60;12.60;;;4.10;99.90;;;;;;5015202;28;20520;-86
2021/01/06 09:41:04;;;;;;;15.80;11.10;;;4.10;99.90;;;;;;5014590;28;20449;-85
2021/01/06 09:43:37;;;;;;;13.47;10.90;;;4.00;99.90;;;;;;5007759;28;20899;-84
2021/01/06 09:46:13;;;;;;;14.60;10.77;;;4.00;99.90;;;;;;5010586;28;20551;-85
2021/01/06 09:48:43;;;;;;;13.57;10.13;;;3.90;99.90;;;;;;5009331;28;20463;-85
2021/01/06 09:51:16;;;;;;;14.07;10.60;;;4.00;99.90;;;;;;5014499;28;20533;-84
2021/01/06 09:53:43;;;;;;;15.63;11.27;;;3.90;99.90;;;;;;5014800;28;20453;-84
2021/01/06 09:56:15;;;;;;;13.30;10.97;;;3.80;99.90;;;;;;5008394;28;20974;-85
2021/01/06 09:58:42;;;;;;;12.10;9.90;;;3.80;99.90;;;;;;5014619;28;20478;-85
2021/01/06 10:01:17;;;;;;;14.87;10.73;;;3.70;99.90;;;;;;5017033;28;21031;-83
2021/01/06 10:03:47;;;;;;;12.40;10.00;;;3.70;99.90;;;;;;5028744;28;20574;-85
2021/01/06 10:06:24;;;;;;;16.20;11.80;;;3.70;99.90;;;;;;5018193;28;20477;-85
2021/01/06 10:08:58;;;;;;;15.63;12.00;;;3.70;99.90;;;;;;5016396;28;20543;-85
2021/01/06 10:11:42;;;;;;;16.43;11.53;;;3.60;99.90;;;;;;5016218;28;20940;-83
2021/01/06 10:14:22;;;;;;;17.80;11.53;;;3.60;99.90;;;;;;5015145;28;20508;-84
2021/01/06 10:16:55;;;;;;;14.77;10.90;;;3.60;99.90;;;;;;5013278;28;20539;-84
2021/01/06 10:19:38;;;;;;;17.27;13.03;;;3.70;99.90;;;;;;5013161;28;20461;-84
2021/01/06 10:22:13;;;;;;;15.57;11.80;;;3.70;99.90;;;;;;5013819;28;20534;-84
2021/01/06 10:24:54;;;;;;;16.00;12.20;;;3.70;99.90;;;;;;5013600;28;20528;-85
2021/01/06 10:27:29;;;;;;;16.30;12.40;;;3.80;99.90;;;;;;5014452;28;20520;-85
2021/01/06 10:29:57;;;;;;;19.63;13.33;;;3.90;99.90;;;;;;5014396;28;20537;-85
2021/01/06 10:32:44;;;;;;;17.57;11.60;;;3.80;99.90;;;;;;5012713;28;20888;-84
2021/01/06 10:35:31;;;;;;;14.77;12.43;;;4.00;99.90;;;;;;5011200;28;20938;-89
2021/01/06 10:38:01;;;;;;;18.63;13.83;;;4.10;99.90;;;;;;5013858;28;21014;-85
2021/01/06 10:40:37;;;;;;;18.47;13.63;;;4.10;99.90;;;;;;5007508;28;20456;-86
2021/01/06 10:43:39;;;;;;;14.13;10.97;;;4.00;99.90;;;;;;5013880;28;20455;-86
2021/01/06 10:46:36;;;;;;;17.43;12.17;;;3.90;99.90;;;;;;4936501;29;20488;-86
2021/01/06 10:49:04;;;;;;;13.53;10.37;;;4.00;99.90;;;;;;5007417;28;20498;-85
2021/01/06 10:52:14;;;;;;;14.57;11.13;;;4.20;99.90;;;;;;5014580;28;20466;-85
2021/01/06 10:54:47;;;;;;;17.70;12.40;;;4.10;99.90;;;;;;5007500;28;20434;-85
2021/01/06 10:57:25;;;;;;;14.00;11.40;;;3.90;99.90;;;;;;5015042;28;20505;-91
2021/01/06 11:00:16;;;;;;;21.43;12.03;;;3.90;99.90;;;;;;5017223;28;20453;-85
2021/01/06 11:03:24;;;;;;;15.70;11.53;;;3.80;99.90;;;;;;5010742;28;20543;-85
2021/01/06 11:06:05;;;;;;;13.60;9.80;;;3.90;99.90;;;;;;5012461;28;20440;-85
2021/01/06 11:09:18;;;;;;;13.90;10.43;;;4.00;99.90;;;;;;5014213;28;20474;-86
2021/01/06 11:12:14;;;;;;;13.10;9.70;;;3.90;99.90;;;;;;5013601;28;20488;-87
2021/01/06 11:15:01;;;;;;;12.67;9.80;;;4.00;99.90;;;;;;5009550;28;20541;-86
2021/01/06 11:17:34;;;;;;;13.07;9.80;;;3.80;99.90;;;;;;5008811;28;20978;-86
2021/01/06 11:20:01;;;;;;;13.97;9.90;;;3.90;99.90;;;;;;5013593;28;20453;-86
2021/01/06 11:22:37;;;;;;;17.33;11.40;;;3.90;99.90;;;;;;5015089;28;20551;-86
2021/01/06 11:25:39;;;;;;;13.10;10.83;;;3.90;99.90;;;;;;5017617;28;20561;-86
2021/01/06 11:28:22;;;;;;;13.47;10.80;;;3.80;99.90;;;;;;5010934;28;20506;-87
2021/01/06 11:31:19;;;;;;;13.70;9.30;;;3.80;99.90;;;;;;5018331;28;20900;-88
2021/01/06 11:33:47;;;;;;;14.10;8.70;;;3.90;99.90;;;;;;5014413;28;20849;-88
2021/01/06 11:36:45;;;;;;;12.70;9.07;;;3.90;99.90;;;;;;5016690;28;20483;-88
2021/01/06 11:39:15;;;;;;;12.70;10.20;;;3.80;99.90;;;;;;5013748;28;20486;-87
2021/01/06 11:42:09;;;;;;;13.60;9.10;;;3.80;99.90;;;;;;5016601;28;20457;-87
2021/01/06 11:44:42;;;;;;;15.20;11.90;;;3.80;99.90;;;;;;5016589;28;20456;-87
2021/01/06 11:47:29;;;;;;;15.30;10.23;;;3.80;99.90;;;;;;5021239;28;20512;-87
2021/01/06 11:50:00;;;;;;;12.13;9.20;;;3.90;99.90;;;;;;5011950;28;20524;-88
2021/01/06 11:52:39;;;;;;;20.80;10.43;;;4.00;99.90;;;;;;5009303;28;20906;-88
2021/01/06 11:55:40;;;;;;;14.57;9.40;;;4.10;99.90;;;;;;5017811;28;20490;-88
2021/01/06 11:58:32;;;;;;;11.07;8.20;;;4.10;99.90;;;;;;5011780;28;20508;-88
2021/01/06 12:01:30;;;;;;;12.97;9.20;;;4.20;99.90;;;;;;5017361;28;20475;-88
2021/01/06 12:04:29;;;;;;;12.90;9.83;;;4.10;99.90;;;;;;5016955;28;20466;-88
2021/01/06 12:07:32;;;;;;;13.20;9.17;;;4.10;99.90;;;;;;5017255;28;20545;-88
2021/01/06 12:10:18;;;;;;;14.03;9.93;;;4.20;99.90;;;;;;5016072;28;20464;-89
2021/01/06 12:12:56;;;;;;;12.90;9.70;;;4.30;99.90;;;;;;5018589;28;20587;-88
2021/01/06 12:15:42;;;;;;;13.53;9.63;;;4.40;99.90;;;;;;5020160;28;20888;-88
2021/01/06 12:18:26;;;;;;;12.50;8.83;;;4.50;99.90;;;;;;5015309;28;20511;-87
2021/01/06 12:20:54;;;;;;;16.67;8.40;;;4.60;99.90;;;;;;5022086;28;20527;-87
2021/01/06 12:23:37;;;;;;;13.00;9.97;;;4.80;99.90;;;;;;5019097;28;20528;-87
2021/01/06 12:26:05;;;;;;;12.87;9.40;;;4.80;99.90;;;;;;5021203;28;20434;-87
2021/01/06 12:28:35;;;;;;;11.63;8.47;;;4.90;99.90;;;;;;5019632;28;21033;-88
2021/01/06 12:31:15;;;;;;;13.50;9.43;;;4.80;99.90;;;;;;5019839;28;20533;-88
2021/01/06 12:33:49;;;;;;;12.43;10.33;;;4.60;99.90;;;;;;5020472;28;20442;-87
2021/01/06 12:36:31;;;;;;;17.23;10.67;;;4.50;99.90;;;;;;5019490;28;20451;-90
2021/01/06 12:39:25;;;;;;;12.97;9.87;;;4.50;99.90;;;;;;5020407;28;20496;-89
2021/01/06 12:41:58;;;;;;;17.03;10.10;;;4.40;99.90;;;;;;5012778;28;20932;-87
2021/01/06 12:44:29;;;;;;;12.40;10.10;;;4.50;99.90;;;;;;5020213;28;20532;-89
2021/01/06 12:47:00;;;;;;;12.07;8.30;;;4.70;99.90;;;;;;5015330;28;20531;-88
2021/01/06 12:49:54;;;;;;;14.67;9.40;;;4.80;99.90;;;;;;5011328;28;20454;-89
2021/01/06 12:52:39;;;;;;;12.13;9.00;;;4.70;99.90;;;;;;5005366;28;20523;-87
2021/01/06 12:55:15;;;;;;;11.43;8.03;;;4.70;99.90;;;;;;5012595;28;20519;-88
2021/01/06 12:57:51;;;;;;;10.67;8.10;;;4.80;99.90;;;;;;5015319;28;20495;-88
2021/01/06 13:00:30;;;;;;;11.83;8.73;;;4.80;99.90;;;;;;5014649;28;20554;-88
2021/01/06 13:03:22;;;;;;;10.10;8.03;;;4.80;99.90;;;;;;5013034;28;20457;-88
2021/01/06 13:05:53;;;;;;;14.17;9.77;;;4.80;99.90;;;;;;5016277;28;21233;-88
2021/01/06 13:08:45;;;;;;;12.03;8.23;;;4.90;99.90;;;;;;5015448;28;20457;-88
2021/01/06 13:11:19;;;;;;;11.20;8.63;;;4.80;99.90;;;;;;5016106;28;20460;-88
2021/01/06 13:13:47;;;;;;;12.50;9.10;;;5.00;99.90;;;;;;5015179;28;20944;-88
2021/01/06 13:16:31;;;;;;;14.80;10.63;;;5.00;99.90;;;;;;5016282;28;20506;-87
2021/01/06 13:19:48;;;;;;;;;;;;;;;;;;;;;
2021/01/06 13:22:34;;;;;;;15.53;10.30;;;5.10;99.90;;;;;;4987682;28;20457;-88